Time;durP1;ratioP1;P1;durP2;ratioP2;P2;SDS_P1;SDS_P2;PMS_P1;PMS_P2;Temp;Humidity;BMP_temperature;BMP_pressure;BME280_temperature;BME280_humidity;BME280_pressure;Samples;Min_cycle;Max_cycle;Signal;HPM_P1;HPM_P2
2022/03/27 00:04:10;;;;;;;4.38;2.85;;;;;;;19.78;30.98;103071.16;16146563;19;131794;-48
2022/03/27 00:09:31;;;;;;;4.55;2.70;;;;;;;19.76;30.95;103070.50;16146565;19;130725;-48
2022/03/27 00:14:53;;;;;;;3.53;2.63;;;;;;;19.73;30.86;103068.09;16142284;19;130576;-49
2022/03/27 00:20:15;;;;;;;3.08;2.72;;;;;;;19.68;30.99;103068.72;16142848;19;129677;-48
2022/03/27 00:25:37;;;;;;;3.67;2.50;;;;;;;19.65;30.99;103069.97;16147856;19;129801;-46
2022/03/27 00:31:00;;;;;;;4.43;2.67;;;;;;;19.63;31.05;103065.69;16147532;19;129943;-49
2022/03/27 00:36:22;;;;;;;4.32;3.00;;;;;;;19.59;30.89;103073.56;16145268;19;129757;-49
2022/03/27 00:41:44;;;;;;;2.95;2.50;;;;;;;19.56;31.04;103065.66;16147028;19;129890;-48
2022/03/27 00:47:06;;;;;;;3.63;2.50;;;;;;;19.54;30.79;103067.75;16141709;19;129827;-47
2022/03/27 00:52:28;;;;;;;2.97;2.35;;;;;;;19.51;31.11;103063.44;16147177;19;129935;-49
2022/03/27 00:57:50;;;;;;;3.10;2.25;;;;;;;19.50;31.18;103072.84;16141985;19;129967;-47
2022/03/27 01:03:18;;;;;;;2.97;2.30;;;;;;;19.48;31.03;103068.53;16144214;19;129889;-46
2022/03/27 01:14:31;;;;;;;3.30;2.60;;;;;;;19.43;30.87;103065.53;16142356;19;129242;-46
2022/03/27 01:19:54;;;;;;;3.83;2.35;;;;;;;19.41;31.22;103064.88;16136672;19;130798;-46
2022/03/27 01:25:16;;;;;;;2.80;2.42;;;;;;;19.38;31.24;103057.81;16140215;19;129931;-49
2022/03/27 01:30:39;;;;;;;2.67;2.25;;;;;;;19.37;30.96;103050.53;16138888;19;130149;-46
2022/03/27 01:36:01;;;;;;;2.88;2.40;;;;;;;19.35;31.11;103052.63;16139064;19;129699;-48
2022/03/27 01:41:24;;;;;;;4.70;2.35;;;;;;;19.33;30.89;103050.03;16137556;19;129925;-47
2022/03/27 01:46:46;;;;;;;3.30;2.45;;;;;;;19.30;31.32;103038.50;16135331;19;130154;-49
2022/03/27 01:52:08;;;;;;;3.35;2.60;;;;;;;19.29;31.15;103042.31;16142430;19;130462;-48
2022/03/27 01:57:29;;;;;;;5.25;2.90;;;;;;;19.26;30.84;103043.59;16140351;19;130693;-49
2022/03/27 02:02:52;;;;;;;3.03;2.72;;;;;;;19.23;30.96;103041.19;16141724;19;129343;-47
2022/03/27 02:08:14;;;;;;;4.25;2.75;;;;;;;19.21;31.36;103033.09;16137302;19;129788;-46
2022/03/27 02:13:51;;;;;;;3.67;2.67;;;;;;;19.20;31.37;103033.25;16140500;19;130294;-47
2022/03/27 02:19:12;;;;;;;4.53;2.67;;;;;;;19.16;31.29;103030.00;16137500;19;129829;-48
2022/03/27 02:24:34;;;;;;;3.97;2.50;;;;;;;19.15;31.05;103033.00;16137866;19;129761;-46
2022/03/27 02:29:56;;;;;;;3.33;2.58;;;;;;;19.13;31.26;103032.31;16139265;19;129938;-45
2022/03/27 02:35:18;;;;;;;3.67;2.67;;;;;;;19.12;31.40;103036.16;16137423;19;129525;-47
2022/03/27 02:40:42;;;;;;;4.30;2.65;;;;;;;19.08;31.31;103028.22;16133581;19;130357;-48
2022/03/27 02:46:06;;;;;;;4.80;2.60;;;;;;;19.07;31.01;103022.88;16134235;19;129286;-48
2022/03/27 02:51:27;;;;;;;3.20;2.22;;;;;;;19.07;31.10;103031.19;16138496;19;129482;-49
2022/03/27 02:56:49;;;;;;;3.58;2.45;;;;;;;19.05;31.44;103023.09;16137501;19;129004;-49
2022/03/27 03:02:11;;;;;;;2.40;2.20;;;;;;;19.04;31.31;103028.81;16139871;19;130839;-48
2022/03/27 03:07:33;;;;;;;2.60;1.98;;;;;;;19.02;31.43;103020.72;16138388;19;129586;-48
2022/03/27 03:12:56;;;;;;;2.40;2.20;;;;;;;19.01;31.28;103020.91;16139680;19;129189;-46
2022/03/27 03:18:18;;;;;;;4.65;2.42;;;;;;;19.00;31.58;103022.81;16133941;19;129859;-46
2022/03/27 03:23:40;;;;;;;3.78;2.35;;;;;;;18.98;31.20;103019.38;16135524;19;129885;-50
2022/03/27 03:29:01;;;;;;;3.67;2.20;;;;;;;18.95;31.40;103025.34;16135966;19;129041;-50
2022/03/27 03:34:23;;;;;;;2.90;2.55;;;;;;;18.96;31.48;103015.94;16133957;19;129161;-46
2022/03/27 03:39:46;;;;;;;3.15;2.30;;;;;;;18.95;31.46;103008.69;16132200;19;129460;-46
2022/03/27 03:45:08;;;;;;;2.65;2.08;;;;;;;18.93;31.29;103010.81;16131578;19;129305;-47
2022/03/27 03:50:33;;;;;;;2.47;1.90;;;;;;;18.92;31.38;103001.59;16135587;19;129342;-48
2022/03/27 03:55:55;;;;;;;2.95;2.10;;;;;;;18.90;31.60;103003.72;16136292;19;130339;-46
2022/03/27 04:01:16;;;;;;;2.63;2.10;;;;;;;18.88;31.29;103016.06;16129931;19;129538;-46
2022/03/27 04:06:38;;;;;;;2.83;1.80;;;;;;;18.87;31.33;103011.56;16134050;19;128853;-47
2022/03/27 04:12:01;;;;;;;2.72;1.80;;;;;;;18.87;31.50;103011.56;16134633;19;130149;-48
2022/03/27 04:17:23;;;;;;;2.72;1.80;;;;;;;18.86;31.36;103021.81;16131232;19;131265;-49
2022/03/27 04:22:45;;;;;;;2.25;1.80;;;;;;;18.84;31.60;103001.75;16132196;19;129243;-48
2022/03/27 04:28:10;;;;;;;2.85;2.00;;;;;;;18.84;31.25;103011.97;16128728;19;129269;-45
2022/03/27 04:33:32;;;;;;;4.43;2.00;;;;;;;18.83;31.62;103015.81;16132152;19;130083;-46
2022/03/27 04:38:55;;;;;;;2.45;1.95;;;;;;;18.82;31.71;103012.16;16128950;19;129626;-48
2022/03/27 04:44:17;;;;;;;2.85;1.70;;;;;;;18.81;31.42;103015.16;16125897;19;130647;-46
2022/03/27 04:49:38;;;;;;;2.95;2.13;;;;;;;18.79;31.36;103008.94;16144105;19;129436;-51
2022/03/27 04:55:00;;;;;;;2.95;2.20;;;;;;;18.76;31.55;103019.38;16147276;19;129849;-49
2022/03/27 05:00:22;;;;;;;2.95;2.30;;;;;;;18.74;31.80;103027.00;16143212;19;129579;-49
2022/03/27 05:05:44;;;;;;;3.55;2.15;;;;;;;18.73;31.52;103019.75;16146493;19;130274;-46
2022/03/27 05:11:06;;;;;;;3.13;2.40;;;;;;;18.72;31.71;103025.50;16143157;19;131010;-46
2022/03/27 05:16:28;;;;;;;3.65;2.25;;;;;;;18.70;31.50;103028.47;16141212;19;129998;-47
2022/03/27 05:21:49;;;;;;;2.97;2.63;;;;;;;18.70;31.80;103027.59;16137726;19;129529;-46
2022/03/27 05:27:12;;;;;;;2.88;2.40;;;;;;;18.70;32.02;103034.03;16138541;19;130473;-49
2022/03/27 05:32:33;;;;;;;2.78;2.50;;;;;;;18.69;31.74;103031.44;16141426;19;129930;-47
2022/03/27 05:37:55;;;;;;;3.85;2.38;;;;;;;18.77;31.96;103047.94;16139779;19;129676;-46
2022/03/27 05:43:17;;;;;;;2.67;1.98;;;;;;;18.97;32.24;103055.63;16136617;19;129064;-45
2022/03/27 05:48:39;;;;;;;5.93;2.17;;;;;;;19.37;32.09;103042.19;16137665;19;129401;-44
2022/03/27 05:54:00;;;;;;;3.15;2.05;;;;;;;19.91;31.51;103051.81;16141510;19;129889;-47
2022/03/27 05:59:22;;;;;;;2.58;2.08;;;;;;;20.42;31.21;103053.41;16134544;19;129491;-48
2022/03/27 06:04:44;;;;;;;2.17;1.50;;;;;;;20.82;30.60;103058.28;16140056;19;129542;-47
2022/03/27 06:10:07;;;;;;;2.15;1.75;;;;;;;21.02;30.42;103068.63;16138342;19;129424;-49
2022/03/27 06:15:30;;;;;;;3.90;1.83;;;;;;;21.05;30.01;103063.47;16139339;19;131855;-48
2022/03/27 06:20:55;;;;;;;2.10;1.83;;;;;;;21.01;30.02;103072.47;16132759;19;130520;-49
2022/03/27 06:26:16;;;;;;;2.65;2.00;;;;;;;20.89;30.11;103072.19;16140410;19;128979;-45
2022/03/27 06:31:38;;;;;;;3.42;2.33;;;;;;;20.77;30.66;103077.53;16140373;19;129629;-46
2022/03/27 06:37:00;;;;;;;3.38;2.60;;;;;;;20.66;30.76;103083.66;16139202;19;129271;-51
2022/03/27 06:42:24;;;;;;;3.08;2.45;;;;;;;20.52;30.62;103075.25;16133201;19;130042;-46
2022/03/27 06:47:46;;;;;;;3.30;3.00;;;;;;;20.42;30.45;103081.19;16132070;19;130013;-45
2022/03/27 06:53:08;;;;;;;4.30;3.17;;;;;;;20.29;30.90;103086.69;16137223;19;129943;-49
2022/03/27 06:58:29;;;;;;;5.63;3.15;;;;;;;20.19;31.12;103087.03;16136497;19;129240;-46
2022/03/27 07:03:51;;;;;;;5.82;3.88;;;;;;;20.10;31.16;103082.72;16133760;19;131726;-45
2022/03/27 07:09:13;;;;;;;6.45;3.30;;;;;;;19.99;30.93;103098.91;16135482;19;130664;-49
2022/03/27 07:14:35;;;;;;;5.80;3.95;;;;;;;19.93;31.19;103094.13;16134485;19;131350;-44
2022/03/27 07:19:57;;;;;;;5.60;4.20;;;;;;;19.86;31.34;103089.59;16129746;19;130274;-46
2022/03/27 07:25:23;;;;;;;6.80;4.22;;;;;;;19.93;31.35;103088.56;16135553;19;131477;-45
2022/03/27 07:30:48;;;;;;;5.95;4.35;;;;;;;20.12;31.09;103080.59;16132461;19;129450;-46
2022/03/27 07:36:10;;;;;;;6.18;4.68;;;;;;;20.45;30.79;103079.91;16134409;19;129574;-48
2022/03/27 07:41:32;;;;;;;6.78;5.10;;;;;;;20.80;30.91;103076.25;16131447;19;129525;-46
2022/03/27 07:46:58;;;;;;;8.20;4.88;;;;;;;21.00;30.68;103082.72;16130311;19;129594;-46
2022/03/27 07:52:22;;;;;;;8.20;5.35;;;;;;;21.07;30.60;103082.75;16134740;19;130649;-48
2022/03/27 07:57:44;;;;;;;10.90;5.22;;;;;;;21.03;30.21;103084.25;16127828;19;132477;-46
2022/03/27 08:03:08;;;;;;;7.43;5.05;;;;;;;20.96;30.74;103088.91;16130092;19;129464;-47
2022/03/27 08:08:30;;;;;;;6.85;4.85;;;;;;;20.84;30.55;103089.53;16129704;19;130737;-46
2022/03/27 08:13:52;;;;;;;9.18;5.25;;;;;;;20.72;30.82;103085.59;16130375;19;131005;-46
2022/03/27 08:19:14;;;;;;;9.05;5.45;;;;;;;20.60;30.88;103088.97;16121210;19;131124;-51
2022/03/27 08:24:37;;;;;;;7.43;5.35;;;;;;;20.52;31.02;103078.03;16125682;19;130087;-47
2022/03/27 08:29:59;;;;;;;11.95;6.05;;;;;;;20.44;30.98;103080.97;16129799;19;129569;-42
2022/03/27 08:35:21;;;;;;;10.73;6.47;;;;;;;20.44;31.34;103080.97;16141405;19;129826;-43
2022/03/27 08:40:44;;;;;;;10.52;6.47;;;;;;;20.55;31.47;103087.88;16140070;19;129640;-42
2022/03/27 08:46:06;;;;;;;13.85;7.18;;;;;;;20.69;30.95;103086.00;16142220;19;129361;-41
2022/03/27 08:51:48;;;;;;;13.35;6.90;;;;;;;20.78;31.01;103090.38;16145218;19;130224;-41
2022/03/27 08:57:22;;;;;;;13.90;7.45;;;;;;;20.90;30.76;103083.16;16144386;19;129551;-42
2022/03/27 09:02:45;;;;;;;10.73;6.78;;;;;;;21.02;30.88;103085.31;16138030;19;132256;-44
2022/03/27 09:08:09;;;;;;;11.65;7.45;;;;;;;21.10;30.94;103082.31;16142668;19;131446;-41
2022/03/27 09:13:32;;;;;;;11.83;7.80;;;;;;;21.17;30.73;103080.41;16142665;19;130002;-44
2022/03/27 09:19:01;;;;;;;16.83;7.35;;;;;;;21.29;30.91;103090.94;16139758;19;129759;-41
2022/03/27 09:24:34;;;;;;;13.38;7.93;;;;;;;21.39;30.51;103093.28;16144811;19;129918;-47
2022/03/27 09:30:11;;;;;;;12.65;7.40;;;;;;;21.47;30.39;103099.50;16139478;19;129509;-42
2022/03/27 09:35:37;;;;;;;10.50;6.82;;;;;;;21.54;30.57;103107.06;16140599;19;131085;-44
2022/03/27 09:40:58;;;;;;;12.93;7.88;;;;;;;21.59;30.45;103102.56;16138692;19;129551;-43
2022/03/27 09:46:21;;;;;;;9.88;7.45;;;;;;;21.65;30.13;103089.72;16136577;19;131539;-42
2022/03/27 09:51:53;;;;;;;11.23;7.55;;;;;;;21.67;30.02;103087.53;16139364;19;129616;-46
2022/03/27 09:57:24;;;;;;;9.80;7.40;;;;;;;21.69;30.23;103084.56;16138857;19;129191;-43
2022/03/27 10:02:48;;;;;;;10.20;7.50;;;;;;;21.69;30.00;103090.13;16136497;19;129367;-46
2022/03/27 10:08:10;;;;;;;10.50;7.68;;;;;;;21.72;29.73;103084.97;16140441;19;129317;-44
2022/03/27 10:13:32;;;;;;;12.50;7.53;;;;;;;21.74;30.19;103091.19;16139810;19;130839;-41
2022/03/27 10:19:04;;;;;;;11.27;7.50;;;;;;;21.72;30.47;103082.19;16138130;19;129700;-41
2022/03/27 10:24:32;;;;;;;10.57;7.78;;;;;;;21.64;30.57;103071.28;16136947;19;129446;-42
2022/03/27 10:29:55;;;;;;;10.60;7.13;;;;;;;21.53;30.42;103072.75;16137872;19;129323;-42
2022/03/27 10:35:36;;;;;;;11.35;8.10;;;;;;;21.43;30.27;103064.78;16132524;19;129686;-42
2022/03/27 10:41:20;;;;;;;12.20;7.93;;;;;;;21.30;30.41;103064.78;16130471;19;130733;-43
2022/03/27 10:46:46;;;;;;;12.60;7.65;;;;;;;21.19;30.75;103061.56;16134140;19;129401;-41
2022/03/27 10:52:09;;;;;;;10.40;7.55;;;;;;;21.08;30.83;103059.41;16139574;19;130252;-43
2022/03/27 10:57:34;;;;;;;10.57;7.63;;;;;;;20.99;31.17;103057.91;16138267;19;130441;-43
2022/03/27 11:02:56;;;;;;;15.60;9.18;;;;;;;20.87;31.01;103052.94;16131571;19;130402;-39
2022/03/27 11:08:18;;;;;;;15.85;9.38;;;;;;;20.80;31.35;103049.28;16137949;19;129913;-42
2022/03/27 11:13:46;;;;;;;12.05;8.45;;;;;;;20.75;31.28;103049.91;16129855;19;129413;-42
2022/03/27 11:19:40;;;;;;;13.00;8.88;;;;;;;20.80;31.27;103046.50;16135272;19;129360;-41
2022/03/27 11:25:21;;;;;;;12.00;8.20;;;;;;;20.89;30.94;103036.91;16135284;19;130447;-45
2022/03/27 11:30:53;;;;;;;12.65;8.30;;;;;;;21.01;30.86;103039.06;16133222;19;129464;-41
2022/03/27 11:36:18;;;;;;;14.43;8.40;;;;;;;21.10;31.20;103036.94;16135038;19;129390;-42
2022/03/27 11:41:45;;;;;;;12.88;8.25;;;;;;;21.19;30.67;103030.94;16132282;19;129503;-42
2022/03/27 11:47:07;;;;;;;11.57;8.43;;;;;;;21.27;30.63;103021.53;16128357;19;129657;-41
2022/03/27 11:52:31;;;;;;;12.05;8.25;;;;;;;21.33;30.93;103019.81;16128943;19;129637;-41
2022/03/27 11:57:58;;;;;;;10.30;7.22;;;;;;;21.38;30.57;103014.47;16141559;19;130217;-41
2022/03/27 12:03:22;;;;;;;11.60;8.73;;;;;;;21.40;30.87;103012.34;16143073;19;129848;-42
2022/03/27 12:08:47;;;;;;;9.85;7.97;;;;;;;21.40;30.94;103009.56;16148782;19;129840;-41
2022/03/27 12:14:10;;;;;;;11.35;8.13;;;;;;;21.45;30.59;102995.81;16148304;19;129306;-43
2022/03/27 12:19:32;;;;;;;12.30;8.50;;;;;;;21.50;31.15;102992.44;16140759;19;131078;-41
2022/03/27 12:24:54;;;;;;;14.02;8.32;;;;;;;21.52;31.31;102993.94;16141886;19;129354;-44
2022/03/27 12:30:16;;;;;;;15.02;9.27;;;;;;;21.55;30.91;102988.97;16136165;19;129836;-45
2022/03/27 12:35:37;;;;;;;18.27;9.48;;;;;;;21.56;31.17;102985.13;16143863;19;131225;-41
2022/03/27 12:40:59;;;;;;;16.33;9.70;;;;;;;21.62;31.64;102976.75;16141870;19;129344;-45
2022/03/27 12:46:23;;;;;;;14.85;8.93;;;;;;;21.70;31.47;102974.84;16142065;19;129207;-41
2022/03/27 12:51:56;;;;;;;17.90;8.80;;;;;;;21.71;31.74;102969.03;16144796;19;129185;-46
2022/03/27 12:57:18;;;;;;;14.02;8.18;;;;;;;21.68;31.57;102952.75;16145071;19;129617;-45
2022/03/27 13:02:40;;;;;;;16.55;9.05;;;;;;;21.67;31.92;102959.41;16138391;19;129600;-45
2022/03/27 13:08:03;;;;;;;18.45;9.25;;;;;;;21.62;32.30;102956.44;16138827;19;129884;-43
2022/03/27 13:13:34;;;;;;;16.15;9.27;;;;;;;21.59;32.44;102945.72;16139826;19;129163;-42
2022/03/27 13:19:05;;;;;;;17.52;9.07;;;;;;;21.51;32.04;102930.97;16143639;19;130145;-41
2022/03/27 13:24:31;;;;;;;19.55;8.32;;;;;;;21.46;32.41;102925.13;16142551;19;130013;-43
2022/03/27 13:29:53;;;;;;;14.98;8.52;;;;;;;21.41;32.59;102927.75;16143232;19;130400;-43
2022/03/27 13:35:16;;;;;;;15.35;8.23;;;;;;;21.35;32.39;102918.28;16141722;19;131423;-43
2022/03/27 13:46:19;;;;;;;13.82;8.90;;;;;;;21.17;32.96;102893.91;16139011;19;130411;-42
2022/03/27 13:51:42;;;;;;;14.52;8.32;;;;;;;21.11;33.33;102889.22;16140829;19;129540;-42
2022/03/27 13:57:05;;;;;;;16.30;8.73;;;;;;;21.06;32.86;102877.88;16142153;19;130388;-43
2022/03/27 14:02:26;;;;;;;16.58;8.40;;;;;;;20.99;33.18;102868.69;16138908;19;130494;-45
2022/03/27 14:07:48;;;;;;;13.48;8.50;;;;;;;20.94;33.60;102865.69;16136853;19;130665;-42
2022/03/27 14:13:10;;;;;;;14.15;8.82;;;;;;;20.88;33.54;102846.00;16138597;19;129224;-41
2022/03/27 14:18:32;;;;;;;18.35;8.13;;;;;;;20.85;33.94;102845.59;16135984;19;129081;-42
2022/03/27 14:23:53;;;;;;;14.65;8.27;;;;;;;20.81;34.01;102844.28;16133928;19;130006;-41
2022/03/27 14:29:17;;;;;;;17.95;8.50;;;;;;;20.78;35.34;102840.03;16137852;19;130108;-42
2022/03/27 14:34:39;;;;;;;15.60;9.20;;;;;;;20.77;35.91;102841.09;16131790;19;130905;-44
2022/03/27 14:40:01;;;;;;;14.80;8.40;;;;;;;20.73;35.76;102831.44;16135507;19;130556;-43
2022/03/27 14:45:23;;;;;;;27.23;8.52;;;;;;;20.69;35.96;102819.00;16134152;19;129289;-45
2022/03/27 14:50:45;;;;;;;21.60;9.15;;;;;;;20.66;35.88;102820.31;16135566;19;129555;-46
2022/03/27 14:56:07;;;;;;;17.08;8.30;;;;;;;20.62;35.14;102807.88;16135041;19;129961;-43
2022/03/27 15:01:29;;;;;;;62.30;10.75;;;;;;;20.59;35.38;102805.56;16134832;19;129449;-41
2022/03/27 15:06:51;;;;;;;22.75;8.65;;;;;;;20.57;35.63;102804.91;16127834;19;129585;-43
2022/03/27 15:12:14;;;;;;;28.02;9.48;;;;;;;20.59;36.02;102794.44;16133436;19;130437;-45
2022/03/27 15:17:37;;;;;;;51.35;10.60;;;;;;;20.63;35.86;102786.50;16132488;19;129053;-44
2022/03/27 15:22:58;;;;;;;124.63;14.52;;;;;;;20.63;36.48;102778.16;16127472;19;129583;-44
2022/03/27 15:28:20;;;;;;;96.43;13.57;;;;;;;20.64;35.68;102775.16;16130551;19;130024;-44
2022/03/27 15:33:44;;;;;;;100.95;12.93;;;;;;;20.66;36.16;102763.84;16129754;19;129642;-44
2022/03/27 15:39:05;;;;;;;76.55;12.85;;;;;;;20.63;36.42;102767.03;16133686;19;129733;-41
2022/03/27 15:44:27;;;;;;;61.67;11.82;;;;;;;20.60;36.28;102760.84;16124718;19;130367;-44
2022/03/27 15:49:49;;;;;;;58.30;11.10;;;;;;;20.57;35.67;102749.28;16128017;19;129876;-44
2022/03/27 15:55:11;;;;;;;61.42;10.90;;;;;;;20.56;36.01;102751.19;16130141;19;129447;-43
2022/03/27 16:00:33;;;;;;;50.80;10.55;;;;;;;20.51;35.55;102739.88;16127947;19;130262;-43
2022/03/27 16:05:55;;;;;;;50.78;10.38;;;;;;;20.45;35.53;102741.59;16133222;19;130304;-46
2022/03/27 16:11:17;;;;;;;40.38;10.00;;;;;;;20.40;35.16;102744.16;16125220;19;129896;-45
2022/03/27 16:16:38;;;;;;;41.17;10.00;;;;;;;20.36;35.35;102736.47;16129963;19;129947;-50
2022/03/27 16:22:01;;;;;;;38.85;9.27;;;;;;;20.32;35.51;102718.50;16123354;19;130511;-45
2022/03/27 16:27:23;;;;;;;31.90;9.18;;;;;;;20.28;35.22;102730.06;16124713;19;129515;-46
2022/03/27 16:32:45;;;;;;;19.92;8.50;;;;;;;20.20;34.64;102724.69;16127358;19;129156;-44
2022/03/27 16:38:08;;;;;;;26.63;9.43;;;;;;;20.18;34.69;102712.09;16127450;19;130398;-45
2022/03/27 16:43:30;;;;;;;22.23;8.98;;;;;;;20.11;34.32;102712.97;16133193;19;129987;-44
2022/03/27 16:48:52;;;;;;;19.35;7.78;;;;;;;20.05;34.63;102702.69;16146197;19;129989;-44
2022/03/27 16:54:14;;;;;;;18.70;7.72;;;;;;;20.04;34.02;102708.47;16146035;19;129872;-45
2022/03/27 16:59:36;;;;;;;16.08;6.80;;;;;;;19.98;34.43;102705.44;16138777;19;129442;-43
2022/03/27 17:04:58;;;;;;;16.95;7.03;;;;;;;19.95;34.13;102705.84;16144537;19;129402;-45
2022/03/27 17:10:23;;;;;;;15.50;7.25;;;;;;;19.92;34.10;102697.97;16143858;19;131421;-44
2022/03/27 17:15:45;;;;;;;13.13;6.15;;;;;;;19.88;34.22;102696.66;16143460;19;130429;-48
2022/03/27 17:21:08;;;;;;;13.73;6.05;;;;;;;19.88;34.01;102696.66;16140384;19;129753;-44
2022/03/27 17:26:31;;;;;;;11.57;6.00;;;;;;;19.85;33.98;102705.41;16140914;19;129570;-46
2022/03/27 17:31:54;;;;;;;14.38;5.72;;;;;;;19.84;33.98;102700.91;16140191;19;129551;-47
2022/03/27 17:37:16;;;;;;;11.57;6.03;;;;;;;19.81;33.76;102698.59;16140684;19;130063;-45
2022/03/27 17:42:37;;;;;;;15.52;7.38;;;;;;;19.80;33.93;102694.09;16138361;19;128970;-43
2022/03/27 17:47:59;;;;;;;15.52;7.47;;;;;;;19.76;33.92;102695.56;16139089;19;129489;-44
2022/03/27 17:53:21;;;;;;;19.13;6.97;;;;;;;19.75;33.86;102691.09;16141914;19;129343;-45
2022/03/27 17:58:43;;;;;;;11.95;6.28;;;;;;;19.72;34.10;102692.38;16143129;19;130025;-45
2022/03/27 18:04:05;;;;;;;14.18;6.65;;;;;;;19.68;34.15;102686.38;16136300;19;129017;-46
2022/03/27 18:09:27;;;;;;;11.80;5.93;;;;;;;19.65;33.83;102695.13;16136267;19;130683;-46
2022/03/27 18:14:49;;;;;;;11.95;5.97;;;;;;;19.74;34.07;102684.69;16131707;19;130484;-46
2022/03/27 18:20:11;;;;;;;15.30;4.97;;;;;;;20.00;33.65;102696.91;16132436;19;130686;-45
2022/03/27 18:25:33;;;;;;;10.13;4.50;;;;;;;20.35;33.36;102691.16;16137969;19;129754;-44
2022/03/27 18:30:55;;;;;;;10.90;5.05;;;;;;;20.68;33.32;102692.16;16132463;19;130868;-45
2022/03/27 18:36:17;;;;;;;28.40;6.15;;;;;;;20.87;33.13;102704.31;16132103;19;129502;-44
2022/03/27 18:41:38;;;;;;;19.70;5.20;;;;;;;20.98;33.12;102705.59;16125991;19;129253;-43
2022/03/27 18:47:00;;;;;;;18.40;5.32;;;;;;;21.05;33.24;102710.06;16125961;19;130150;-45
2022/03/27 18:52:22;;;;;;;23.05;5.13;;;;;;;21.16;33.33;102711.31;16134703;19;129462;-44
2022/03/27 18:57:44;;;;;;;16.40;4.45;;;;;;;21.30;32.91;102702.88;16133558;19;129077;-46
2022/03/27 19:03:17;;;;;;;15.18;4.43;;;;;;;21.44;32.91;102707.31;16129896;19;130196;-44
2022/03/27 19:08:41;;;;;;;18.20;5.00;;;;;;;21.55;32.75;102711.38;16123293;19;130588;-44
2022/03/27 19:14:04;;;;;;;23.92;4.45;;;;;;;21.58;33.02;102721.19;16126840;19;129447;-44
2022/03/27 19:19:39;;;;;;;10.57;4.10;;;;;;;21.54;32.94;102719.94;16154674;19;129997;-47
2022/03/27 19:25:01;;;;;;;12.23;4.33;;;;;;;21.45;32.70;102711.81;16209114;19;129775;-45
2022/03/27 19:30:23;;;;;;;9.15;3.50;;;;;;;21.39;32.92;102707.13;16216978;19;129427;-48
2022/03/27 19:35:45;;;;;;;6.57;3.53;;;;;;;21.31;33.06;102719.38;16214472;19;128670;-46
2022/03/27 19:41:08;;;;;;;11.80;3.67;;;;;;;21.22;33.06;102715.97;16211896;19;129027;-48
2022/03/27 19:46:30;;;;;;;13.07;3.83;;;;;;;21.34;33.33;102718.06;16210375;19;129134;-45
2022/03/27 19:51:52;;;;;;;22.50;3.67;;;;;;;21.51;33.02;102708.19;16215718;19;129093;-47
2022/03/27 19:57:14;;;;;;;18.73;3.38;;;;;;;21.75;32.86;102716.81;16216047;19;129259;-50
2022/03/27 20:02:39;;;;;;;12.93;3.55;;;;;;;21.97;32.76;102713.66;16214568;19;128415;-50
2022/03/27 20:08:01;;;;;;;11.25;3.25;;;;;;;22.11;32.65;102720.84;16216207;19;129281;-48
2022/03/27 20:13:23;;;;;;;13.93;4.30;;;;;;;22.16;32.37;102713.72;16209968;19;129220;-47
2022/03/27 20:18:45;;;;;;;13.15;3.17;;;;;;;22.11;32.55;102715.25;16220836;19;130109;-42
2022/03/27 20:24:06;;;;;;;16.30;3.42;;;;;;;22.04;33.49;102730.34;16221851;19;128666;-48
2022/03/27 20:29:28;;;;;;;19.10;3.75;;;;;;;21.94;33.46;102719.69;16208317;19;129420;-47
2022/03/27 20:34:50;;;;;;;13.35;3.80;;;;;;;21.80;33.16;102719.75;16146280;19;130474;-46
2022/03/27 20:40:12;;;;;;;17.35;3.60;;;;;;;21.66;33.17;102718.16;16141128;19;129716;-43
2022/03/27 20:45:35;;;;;;;15.27;4.53;;;;;;;21.52;33.32;102711.81;16145125;19;129458;-43
2022/03/27 20:51:00;;;;;;;9.13;3.45;;;;;;;21.41;33.04;102712.47;16149939;19;129091;-42
2022/03/27 20:56:22;;;;;;;12.00;3.40;;;;;;;21.28;33.19;102714.25;16147241;19;129525;-43
2022/03/27 21:01:44;;;;;;;14.35;2.95;;;;;;;21.17;33.38;102706.59;16145845;19;130623;-43
2022/03/27 21:07:12;;;;;;;8.65;3.15;;;;;;;21.06;33.44;102700.63;16148675;19;131189;-43
2022/03/27 21:12:34;;;;;;;12.05;3.55;;;;;;;20.95;33.38;102695.75;16146453;19;129509;-45
2022/03/27 21:17:56;;;;;;;13.32;3.28;;;;;;;20.86;33.31;102697.91;16148876;19;130720;-48
2022/03/27 21:23:17;;;;;;;8.88;3.22;;;;;;;20.81;33.43;102696.88;16139445;19;130236;-45
2022/03/27 21:28:39;;;;;;;12.65;3.05;;;;;;;20.73;33.75;102697.91;16145065;19;130006;-43
2022/03/27 21:34:01;;;;;;;7.10;3.05;;;;;;;20.67;33.29;102709.94;16143021;19;130931;-46
2022/03/27 21:39:37;;;;;;;10.38;3.33;;;;;;;20.61;33.61;102706.09;16147909;19;129489;-43
2022/03/27 21:45:00;;;;;;;9.40;2.97;;;;;;;20.55;33.20;102718.06;16142559;19;129367;-46
2022/03/27 21:50:24;;;;;;;10.00;3.80;;;;;;;20.49;33.61;102708.66;16145797;19;130217;-44
2022/03/27 21:55:45;;;;;;;8.00;2.90;;;;;;;20.44;33.44;102705.66;16147110;19;130594;-45
2022/03/27 22:01:16;;;;;;;7.55;3.30;;;;;;;20.40;33.23;102704.41;16143968;19;131308;-45
2022/03/27 22:06:38;;;;;;;9.65;3.22;;;;;;;20.34;33.13;102696.91;16142676;19;130597;-45
2022/03/27 22:12:00;;;;;;;10.02;3.50;;;;;;;20.29;33.16;102689.22;16141502;19;130346;-43
2022/03/27 22:17:22;;;;;;;8.45;3.35;;;;;;;20.23;33.57;102693.72;16143308;19;128845;-44
2022/03/27 22:22:43;;;;;;;6.00;3.22;;;;;;;20.20;33.55;102682.19;16140080;19;129879;-43
2022/03/27 22:28:06;;;;;;;8.50;3.00;;;;;;;20.15;32.99;102674.50;16142052;19;130236;-45
2022/03/27 22:33:28;;;;;;;8.60;3.47;;;;;;;20.09;33.44;102673.41;16141063;19;130448;-44
2022/03/27 22:38:51;;;;;;;8.75;3.05;;;;;;;20.06;33.21;102670.22;16138190;19;129549;-44
2022/03/27 22:44:13;;;;;;;7.55;3.10;;;;;;;20.00;33.44;102666.34;16134845;19;130658;-45
2022/03/27 22:49:36;;;;;;;8.15;3.33;;;;;;;19.97;33.42;102650.94;16136484;19;128914;-45
2022/03/27 22:54:57;;;;;;;6.43;3.47;;;;;;;19.95;33.38;102655.84;16136249;19;129656;-45
2022/03/27 23:00:20;;;;;;;7.70;2.63;;;;;;;19.92;33.15;102650.75;16136445;19;129907;-44
2022/03/27 23:05:43;;;;;;;6.75;3.47;;;;;;;19.88;32.86;102646.66;16131554;19;129693;-48
2022/03/27 23:11:04;;;;;;;4.60;2.35;;;;;;;19.84;33.26;102646.25;16137041;19;129072;-42
2022/03/27 23:16:28;;;;;;;6.78;3.30;;;;;;;19.82;33.07;102647.50;16136474;19;129716;-44
2022/03/27 23:21:50;;;;;;;5.05;3.08;;;;;;;19.79;33.14;102643.22;16129166;19;129986;-51
2022/03/27 23:27:12;;;;;;;6.93;2.75;;;;;;;19.79;33.08;102636.84;16132222;19;129680;-45
2022/03/27 23:32:34;;;;;;;6.95;2.97;;;;;;;19.75;33.20;102628.09;16128143;19;129365;-45
2022/03/27 23:37:56;;;;;;;6.03;3.05;;;;;;;19.73;33.07;102621.00;16132570;19;132073;-51
2022/03/27 23:43:18;;;;;;;7.60;2.88;;;;;;;19.70;33.25;102611.19;16131351;19;129720;-46
2022/03/27 23:48:40;;;;;;;5.30;3.28;;;;;;;19.67;32.93;102604.16;16132603;19;130391;-48
2022/03/27 23:54:02;;;;;;;6.38;3.10;;;;;;;19.65;32.94;102603.50;16156383;19;129293;-45
2022/03/27 23:59:25;;;;;;;6.38;3.40;;;;;;;19.62;32.79;102601.16;16163581;19;129837;-44
